createdAt,value
2019-05-26T00:00:54.194Z,1010.31
2019-05-26T00:01:54.134Z,1010.32
2019-05-26T00:02:54.868Z,1010.31
2019-05-26T00:03:54.199Z,1010.32
2019-05-26T00:04:54.031Z,1010.34
2019-05-26T00:05:54.034Z,1010.31
2019-05-26T00:06:54.095Z,1010.26
2019-05-26T00:07:54.097Z,1010.28
2019-05-26T00:08:54.009Z,1010.28
2019-05-26T00:09:53.989Z,1010.28
2019-05-26T00:10:53.986Z,1010.25
2019-05-26T00:11:54.001Z,1010.21
2019-05-26T00:12:53.958Z,1010.20
2019-05-26T00:13:53.995Z,1010.21
2019-05-26T00:14:53.997Z,1010.16
2019-05-26T00:15:53.960Z,1010.21
2019-05-26T00:16:53.955Z,1010.19
2019-05-26T00:17:53.950Z,1010.16
2019-05-26T00:18:54.016Z,1010.19
2019-05-26T00:19:54.853Z,1010.18
2019-05-26T00:20:53.931Z,1010.19
2019-05-26T00:21:53.946Z,1010.19
2019-05-26T00:22:53.897Z,1010.18
2019-05-26T00:23:56.208Z,1010.18
2019-05-26T00:24:53.868Z,1010.17
2019-05-26T00:25:53.918Z,1010.14
2019-05-26T00:26:53.840Z,1010.14
2019-05-26T00:27:53.842Z,1010.12
2019-05-26T00:28:53.879Z,1010.15
2019-05-26T00:29:54.411Z,1010.09
2019-05-26T00:30:53.895Z,1010.06
2019-05-26T00:31:53.807Z,1010.06
2019-05-26T00:32:53.817Z,1010.05
2019-05-26T00:33:53.882Z,1010.05
2019-05-26T00:34:53.864Z,1010.09
2019-05-26T00:35:53.833Z,1010.06
2019-05-26T00:36:54.020Z,1010.01
2019-05-26T00:37:54.440Z,1010.03
2019-05-26T00:38:53.828Z,1010.05
2019-05-26T00:39:53.766Z,1010.04
2019-05-26T00:40:54.362Z,1010.02
2019-05-26T00:41:53.772Z,1010.00
2019-05-26T00:42:53.764Z,1010.01
2019-05-26T00:43:54.357Z,1009.99
2019-05-26T00:44:54.357Z,1009.94
2019-05-26T00:45:53.650Z,1009.97
2019-05-26T00:46:53.750Z,1009.95
2019-05-26T00:47:54.361Z,1009.94
2019-05-26T00:48:54.361Z,1009.90
2019-05-26T00:49:53.801Z,1009.94
2019-05-26T00:50:54.358Z,1009.97
2019-05-26T00:51:53.612Z,1009.95
2019-05-26T00:52:56.554Z,1009.92
2019-05-26T00:53:53.525Z,1009.94
2019-05-26T00:54:53.501Z,1009.97
2019-05-26T00:55:54.368Z,1009.97
2019-05-26T00:56:53.588Z,1010.01
2019-05-26T00:57:53.474Z,1010.02
2019-05-26T00:58:54.362Z,1009.98
2019-05-26T00:59:53.489Z,1009.97
2019-05-26T01:00:53.440Z,1009.99
2019-05-26T01:02:02.467Z,1009.99
2019-05-26T01:02:53.400Z,1009.99
2019-05-26T01:03:53.406Z,1010.02
2019-05-26T01:04:53.388Z,1009.99
2019-05-26T01:05:53.367Z,1009.97
2019-05-26T01:06:53.370Z,1009.97
2019-05-26T01:08:05.752Z,1010.00
2019-05-26T01:08:54.387Z,1009.97
2019-05-26T01:10:02.516Z,1009.94
2019-05-26T01:10:53.385Z,1009.98
2019-05-26T01:11:53.331Z,1009.97
2019-05-26T01:12:53.298Z,1009.93
2019-05-26T01:13:53.400Z,1009.91
2019-05-26T01:14:53.301Z,1009.94
2019-05-26T01:15:53.276Z,1009.93
2019-05-26T01:16:55.720Z,1009.93
2019-05-26T01:17:53.281Z,1009.92
2019-05-26T01:18:53.290Z,1009.89
2019-05-26T01:19:53.273Z,1009.90
2019-05-26T01:20:53.227Z,1009.90
2019-05-26T01:21:53.235Z,1009.90
2019-05-26T01:22:53.955Z,1009.91
2019-05-26T01:23:53.179Z,1009.88
2019-05-26T01:24:54.419Z,1009.92
2019-05-26T01:25:53.195Z,1009.92
2019-05-26T01:26:53.202Z,1009.88
2019-05-26T01:27:53.142Z,1009.89
2019-05-26T01:28:53.175Z,1009.91
2019-05-26T01:29:53.134Z,1009.90
2019-05-26T01:30:53.216Z,1009.89
2019-05-26T01:31:53.107Z,1009.93
2019-05-26T01:32:53.113Z,1009.93
2019-05-26T01:34:02.585Z,1009.94
2019-05-26T01:35:02.633Z,1009.93
2019-05-26T01:38:24.202Z,1009.95
2019-05-26T01:40:38.751Z,1009.94
2019-05-26T01:41:38.693Z,1009.95
2019-05-26T01:42:38.671Z,1009.93
2019-05-26T01:43:38.645Z,1009.96
2019-05-26T01:44:38.680Z,1009.90
2019-05-26T01:45:38.655Z,1009.97
2019-05-26T01:46:38.634Z,1009.93
2019-05-26T01:47:38.642Z,1009.92
2019-05-26T01:48:38.601Z,1009.91
2019-05-26T01:49:38.582Z,1009.90
2019-05-26T01:50:48.086Z,1009.93
2019-05-26T01:51:39.443Z,1009.92
2019-05-26T01:52:38.556Z,1009.87
2019-05-26T01:53:38.516Z,1009.90
2019-05-26T01:54:40.967Z,1009.90
2019-05-26T01:55:38.528Z,1009.92
2019-05-26T01:56:38.490Z,1009.91
2019-05-26T01:57:38.479Z,1009.87
2019-05-26T01:58:38.467Z,1009.89
2019-05-26T01:59:38.442Z,1009.90
2019-05-26T02:00:38.444Z,1009.91
2019-05-26T02:01:38.465Z,1009.89
2019-05-26T02:02:38.458Z,1009.89
2019-05-26T02:03:38.427Z,1009.89
2019-05-26T02:04:38.397Z,1009.90
2019-05-26T02:05:38.412Z,1009.92
2019-05-26T02:06:38.405Z,1009.94
2019-05-26T02:07:38.945Z,1009.95
2019-05-26T02:08:39.814Z,1009.96
2019-05-26T02:09:38.362Z,1009.95
2019-05-26T02:10:38.455Z,1009.97
2019-05-26T02:11:38.369Z,1009.95
2019-05-26T02:12:38.342Z,1009.92
2019-05-26T02:13:38.369Z,1009.88
2019-05-26T02:14:38.305Z,1009.92
2019-05-26T02:15:38.433Z,1009.87
2019-05-26T02:16:38.338Z,1009.89
2019-05-26T02:17:38.363Z,1009.89
2019-05-26T02:18:38.248Z,1009.92
2019-05-26T02:19:38.325Z,1009.88
2019-05-26T02:20:38.315Z,1009.86
2019-05-26T02:21:38.206Z,1009.87
2019-05-26T02:22:38.303Z,1009.87
2019-05-26T02:23:38.309Z,1009.81
2019-05-26T02:24:38.175Z,1009.85
2019-05-26T02:25:38.202Z,1009.80
2019-05-26T02:26:38.197Z,1009.78
2019-05-26T02:27:38.213Z,1009.81
2019-05-26T02:28:38.189Z,1009.78
2019-05-26T02:29:38.128Z,1009.81
2019-05-26T02:30:38.199Z,1009.80
2019-05-26T02:31:38.193Z,1009.80
2019-05-26T02:32:38.120Z,1009.78
2019-05-26T02:33:38.172Z,1009.80
2019-05-26T02:34:38.090Z,1009.75
2019-05-26T02:35:38.098Z,1009.75
2019-05-26T02:36:38.091Z,1009.78
2019-05-26T02:37:38.068Z,1009.76
2019-05-26T02:38:38.099Z,1009.75
2019-05-26T02:39:38.045Z,1009.79
2019-05-26T02:40:38.145Z,1009.82
2019-05-26T02:41:38.033Z,1009.77
2019-05-26T02:42:38.014Z,1009.81
2019-05-26T02:43:38.027Z,1009.81
2019-05-26T02:44:37.978Z,1009.79
2019-05-26T02:45:38.017Z,1009.77
2019-05-26T02:46:38.032Z,1009.78
2019-05-26T02:47:37.957Z,1009.84
2019-05-26T02:48:37.982Z,1009.80
2019-05-26T02:49:37.942Z,1009.82
2019-05-26T02:50:37.917Z,1009.81
2019-05-26T02:51:37.977Z,1009.80
2019-05-26T02:52:37.924Z,1009.76
2019-05-26T02:53:37.934Z,1009.74
2019-05-26T02:54:37.883Z,1009.77
2019-05-26T02:55:37.929Z,1009.81
2019-05-26T02:56:37.901Z,1009.83
2019-05-26T02:57:37.858Z,1009.81
2019-05-26T02:58:37.846Z,1009.82
2019-05-26T02:59:37.875Z,1009.76
2019-05-26T03:00:39.220Z,1009.79
2019-05-26T03:01:38.071Z,1009.77
2019-05-26T03:02:37.928Z,1009.80
2019-05-26T03:03:37.871Z,1009.78
2019-05-26T03:04:37.787Z,1009.81
2019-05-26T03:05:37.779Z,1009.77
2019-05-26T03:06:37.785Z,1009.74
2019-05-26T03:07:37.836Z,1009.77
2019-05-26T03:08:37.731Z,1009.76
2019-05-26T03:09:37.764Z,1009.80
2019-05-26T03:10:37.707Z,1009.79
2019-05-26T03:11:37.725Z,1009.77
2019-05-26T03:12:37.677Z,1009.78
2019-05-26T03:13:37.722Z,1009.80
2019-05-26T03:14:37.654Z,1009.80
2019-05-26T03:15:37.689Z,1009.81
2019-05-26T03:16:37.709Z,1009.79
2019-05-26T03:17:37.640Z,1009.77
2019-05-26T03:18:37.679Z,1009.81
2019-05-26T03:19:37.635Z,1009.83
2019-05-26T03:20:37.602Z,1009.83
2019-05-26T03:21:37.595Z,1009.85
2019-05-26T03:22:37.593Z,1009.86
2019-05-26T03:23:38.460Z,1009.82
2019-05-26T03:24:37.555Z,1009.83
2019-05-26T03:25:37.570Z,1009.84
2019-05-26T03:26:37.587Z,1009.85
2019-05-26T03:27:37.628Z,1009.79
2019-05-26T03:28:37.535Z,1009.82
2019-05-26T03:29:37.546Z,1009.82
2019-05-26T03:30:37.507Z,1009.82
2019-05-26T03:31:37.531Z,1009.80
2019-05-26T03:32:37.455Z,1009.81
2019-05-26T03:33:37.572Z,1009.85
2019-05-26T03:34:37.500Z,1009.83
2019-05-26T03:35:37.452Z,1009.85
2019-05-26T03:36:37.590Z,1009.90
2019-05-26T03:37:37.453Z,1009.88
2019-05-26T03:38:37.457Z,1009.84
2019-05-26T03:39:45.338Z,1009.86
2019-05-26T03:40:38.484Z,1009.87
2019-05-26T03:41:37.445Z,1009.84
2019-05-26T03:42:37.377Z,1009.84
2019-05-26T03:43:38.024Z,1009.85
2019-05-26T03:44:37.369Z,1009.84
2019-05-26T03:45:37.334Z,1009.85
2019-05-26T03:46:37.329Z,1009.89
2019-05-26T03:47:37.498Z,1009.85
2019-05-26T03:48:37.320Z,1009.82
2019-05-26T03:49:37.331Z,1009.83
2019-05-26T03:50:37.292Z,1009.84
2019-05-26T03:51:37.284Z,1009.85
2019-05-26T03:52:37.287Z,1009.81
2019-05-26T03:53:37.279Z,1009.85
2019-05-26T03:54:37.974Z,1009.83
2019-05-26T03:55:37.334Z,1009.84
2019-05-26T03:56:37.209Z,1009.81
2019-05-26T03:57:37.222Z,1009.82
2019-05-26T03:58:37.213Z,1009.80
2019-05-26T03:59:37.186Z,1009.85
2019-05-26T04:00:37.251Z,1009.82
2019-05-26T04:01:37.157Z,1009.82
2019-05-26T04:02:37.125Z,1009.81
2019-05-26T04:03:37.123Z,1009.81
2019-05-26T04:04:37.180Z,1009.81
2019-05-26T04:05:37.134Z,1009.78
2019-05-26T04:06:37.093Z,1009.80
2019-05-26T04:07:37.106Z,1009.79
2019-05-26T04:08:37.109Z,1009.77
2019-05-26T04:09:37.082Z,1009.75
2019-05-26T04:10:37.088Z,1009.78
2019-05-26T04:11:37.075Z,1009.71
2019-05-26T04:12:37.133Z,1009.68
2019-05-26T04:13:37.022Z,1009.67
2019-05-26T04:14:37.029Z,1009.63
2019-05-26T04:15:37.019Z,1009.64
2019-05-26T04:16:37.000Z,1009.64
2019-05-26T04:17:37.036Z,1009.59
2019-05-26T04:18:36.955Z,1009.57
2019-05-26T04:19:36.945Z,1009.58
2019-05-26T04:20:36.947Z,1009.56
2019-05-26T04:21:36.933Z,1009.56
2019-05-26T04:22:36.951Z,1009.55
2019-05-26T04:23:37.105Z,1009.51
2019-05-26T04:24:36.897Z,1009.53
2019-05-26T04:25:36.930Z,1009.57
2019-05-26T04:26:36.916Z,1009.56
2019-05-26T04:27:36.885Z,1009.54
2019-05-26T04:28:36.888Z,1009.56
2019-05-26T04:29:36.855Z,1009.56
2019-05-26T04:30:36.842Z,1009.55
2019-05-26T04:31:36.814Z,1009.48
2019-05-26T04:32:36.862Z,1009.51
2019-05-26T04:33:36.833Z,1009.52
2019-05-26T04:34:36.797Z,1009.56
2019-05-26T04:35:36.793Z,1009.57
2019-05-26T04:36:36.754Z,1009.58
2019-05-26T04:37:36.777Z,1009.61
2019-05-26T04:38:36.765Z,1009.64
2019-05-26T04:39:36.779Z,1009.66
2019-05-26T04:40:36.762Z,1009.64
2019-05-26T04:41:36.803Z,1009.71
2019-05-26T04:42:36.742Z,1009.66
2019-05-26T04:43:36.726Z,1009.66
2019-05-26T04:44:36.708Z,1009.64
2019-05-26T04:45:36.676Z,1009.63
2019-05-26T04:46:36.841Z,1009.63
2019-05-26T04:47:36.720Z,1009.71
2019-05-26T04:48:36.674Z,1009.66
2019-05-26T04:49:37.832Z,1009.67
2019-05-26T04:50:36.850Z,1009.63
2019-05-26T04:51:37.478Z,1009.62
2019-05-26T04:52:36.684Z,1009.57
2019-05-26T04:53:36.725Z,1009.59
2019-05-26T04:54:36.673Z,1009.58
2019-05-26T04:55:36.597Z,1009.57
2019-05-26T04:56:36.695Z,1009.55
2019-05-26T04:57:36.575Z,1009.55
2019-05-26T04:58:36.541Z,1009.50
2019-05-26T04:59:36.516Z,1009.52
2019-05-26T05:00:46.239Z,1009.50
2019-05-26T05:01:38.367Z,1009.50
2019-05-26T05:02:52.089Z,1009.49
2019-05-26T05:03:36.557Z,1009.46
2019-05-26T05:04:36.469Z,1009.49
2019-05-26T05:05:38.876Z,1009.44
2019-05-26T05:06:42.384Z,1009.46
2019-05-26T05:07:39.105Z,1009.48
2019-05-26T05:08:36.440Z,1009.41
2019-05-26T05:09:38.588Z,1009.38
2019-05-26T05:10:42.756Z,1009.38
2019-05-26T05:11:36.434Z,1009.37
2019-05-26T05:12:36.391Z,1009.41
2019-05-26T05:13:36.432Z,1009.37
2019-05-26T05:14:36.383Z,1009.36
2019-05-26T05:15:36.451Z,1009.34
2019-05-26T05:16:37.097Z,1009.33
2019-05-26T05:17:36.348Z,1009.39
2019-05-26T05:18:49.030Z,1009.38
2019-05-26T05:19:38.483Z,1009.37
2019-05-26T05:20:36.376Z,1009.38
2019-05-26T05:21:43.073Z,1009.38
2019-05-26T05:22:39.673Z,1009.38
2019-05-26T05:23:36.321Z,1009.43
2019-05-26T05:24:40.156Z,1009.39
2019-05-26T05:25:36.400Z,1009.38
2019-05-26T05:26:36.411Z,1009.35
2019-05-26T05:27:36.296Z,1009.31
2019-05-26T05:28:36.205Z,1009.30
2019-05-26T05:29:36.198Z,1009.33
2019-05-26T05:30:36.206Z,1009.32
2019-05-26T05:31:36.169Z,1009.25
2019-05-26T05:32:36.180Z,1009.26
2019-05-26T05:33:36.158Z,1009.24
2019-05-26T05:34:36.168Z,1009.26
2019-05-26T05:35:36.204Z,1009.20
2019-05-26T05:36:36.989Z,1009.20
2019-05-26T05:37:36.138Z,1009.21
2019-05-26T05:38:37.137Z,1009.21
2019-05-26T05:39:37.016Z,1009.26
2019-05-26T05:40:36.167Z,1009.19
2019-05-26T05:41:36.319Z,1009.18
2019-05-26T05:42:36.074Z,1009.21
2019-05-26T05:43:37.989Z,1009.20
2019-05-26T05:44:36.073Z,1009.16
2019-05-26T05:45:36.990Z,1009.17
2019-05-26T05:46:39.497Z,1009.20
2019-05-26T05:47:36.112Z,1009.21
2019-05-26T05:48:40.077Z,1009.19
2019-05-26T05:49:36.350Z,1009.20
2019-05-26T05:50:39.122Z,1009.14
2019-05-26T05:51:37.998Z,1009.17
2019-05-26T05:52:37.534Z,1009.16
2019-05-26T05:53:35.956Z,1009.14
2019-05-26T05:54:35.922Z,1009.17
2019-05-26T05:55:35.917Z,1009.14
2019-05-26T05:56:35.931Z,1009.12
2019-05-26T05:57:35.997Z,1009.10
2019-05-26T05:58:36.995Z,1009.05
2019-05-26T05:59:35.980Z,1009.03
2019-05-26T06:00:35.870Z,1009.11
2019-05-26T06:01:35.931Z,1009.07
2019-05-26T06:02:35.912Z,1009.07
2019-05-26T06:03:35.903Z,1009.07
2019-05-26T06:04:35.835Z,1009.06
2019-05-26T06:05:35.849Z,1009.08
2019-05-26T06:06:35.820Z,1009.08
2019-05-26T06:07:35.829Z,1009.05
2019-05-26T06:08:35.839Z,1009.02
2019-05-26T06:09:36.631Z,1009.05
2019-05-26T06:10:35.902Z,1009.02
2019-05-26T06:11:35.765Z,1009.05
2019-05-26T06:12:35.856Z,1009.00
2019-05-26T06:14:53.129Z,1008.99
2019-05-26T06:15:53.884Z,1008.98
2019-05-26T06:16:53.131Z,1008.92
2019-05-26T06:17:53.099Z,1008.94
2019-05-26T06:18:53.110Z,1008.89
2019-05-26T06:19:53.112Z,1008.89
2019-05-26T06:20:53.056Z,1008.92
2019-05-26T06:21:53.037Z,1008.91
2019-05-26T06:22:53.080Z,1008.88
2019-05-26T06:23:53.105Z,1008.88
2019-05-26T06:24:53.887Z,1008.84
2019-05-26T06:25:53.078Z,1008.79
2019-05-26T06:26:53.006Z,1008.82
2019-05-26T06:27:53.005Z,1008.84
2019-05-26T06:28:53.012Z,1008.84
2019-05-26T06:29:58.710Z,1008.80
2019-05-26T06:30:53.990Z,1008.83
2019-05-26T06:31:53.281Z,1008.86
2019-05-26T06:32:52.931Z,1008.83
2019-05-26T06:33:52.929Z,1008.84
2019-05-26T06:34:52.921Z,1008.78
2019-05-26T06:35:52.917Z,1008.84
2019-05-26T06:36:52.923Z,1008.82
2019-05-26T06:37:52.868Z,1008.84
2019-05-26T06:38:52.878Z,1008.79
2019-05-26T06:39:52.904Z,1008.76
2019-05-26T06:40:52.869Z,1008.79
2019-05-26T06:41:52.882Z,1008.76
2019-05-26T06:42:52.882Z,1008.70
2019-05-26T06:43:52.807Z,1008.70
2019-05-26T06:44:54.453Z,1008.81
2019-05-26T06:45:52.915Z,1008.75
2019-05-26T06:46:53.500Z,1008.77
2019-05-26T06:47:52.792Z,1008.77
2019-05-26T06:48:53.114Z,1008.80
2019-05-26T06:49:52.827Z,1008.77
2019-05-26T06:50:52.802Z,1008.79
2019-05-26T06:51:52.734Z,1008.80
2019-05-26T06:52:53.894Z,1008.81
2019-05-26T06:53:52.723Z,1008.83
2019-05-26T06:54:52.682Z,1008.76
2019-05-26T06:55:52.706Z,1008.77
2019-05-26T06:56:53.092Z,1008.83
2019-05-26T06:57:52.882Z,1008.75
2019-05-26T06:58:52.730Z,1008.77
2019-05-26T06:59:52.699Z,1008.78
2019-05-26T07:00:52.724Z,1008.81
2019-05-26T07:01:52.721Z,1008.73
2019-05-26T07:02:52.657Z,1008.73
2019-05-26T07:03:53.033Z,1008.73
2019-05-26T07:04:52.816Z,1008.70
2019-05-26T07:05:52.602Z,1008.73
2019-05-26T07:06:52.700Z,1008.65
2019-05-26T07:07:53.522Z,1008.68
2019-05-26T07:08:53.990Z,1008.61
2019-05-26T07:09:57.401Z,1008.62
2019-05-26T07:10:52.916Z,1008.62
2019-05-26T07:11:59.126Z,1008.62
2019-05-26T07:12:53.519Z,1008.58
2019-05-26T07:13:52.519Z,1008.55
2019-05-26T07:14:52.495Z,1008.54
2019-05-26T07:15:52.505Z,1008.55
2019-05-26T07:16:52.507Z,1008.53
2019-05-26T07:17:52.566Z,1008.54
2019-05-26T07:18:52.439Z,1008.53
2019-05-26T07:19:52.437Z,1008.49
2019-05-26T07:20:52.479Z,1008.53
2019-05-26T07:21:52.445Z,1008.50
2019-05-26T07:22:52.478Z,1008.49
2019-05-26T07:23:52.390Z,1008.52
2019-05-26T07:24:52.375Z,1008.46
2019-05-26T07:25:52.378Z,1008.51
2019-05-26T07:26:52.613Z,1008.52
2019-05-26T07:27:52.404Z,1008.57
2019-05-26T07:28:52.329Z,1008.55
2019-05-26T07:29:52.380Z,1008.49
2019-05-26T07:30:52.357Z,1008.55
2019-05-26T07:31:52.528Z,1008.51
2019-05-26T07:32:52.310Z,1008.47
2019-05-26T07:33:52.326Z,1008.48
2019-05-26T07:34:52.272Z,1008.46
2019-05-26T07:35:52.275Z,1008.45
2019-05-26T07:36:52.276Z,1008.52
2019-05-26T07:37:52.282Z,1008.54
2019-05-26T07:38:52.244Z,1008.50
2019-05-26T07:39:52.288Z,1008.46
2019-05-26T07:40:52.330Z,1008.46
2019-05-26T07:42:08.683Z,1008.36
2019-05-26T07:42:53.204Z,1008.37
2019-05-26T07:43:52.173Z,1008.34
2019-05-26T07:44:52.186Z,1008.33
2019-05-26T07:45:52.258Z,1008.34
2019-05-26T07:46:52.148Z,1008.31
2019-05-26T07:47:52.115Z,1008.30
2019-05-26T07:48:52.148Z,1008.32
2019-05-26T07:49:52.135Z,1008.30
2019-05-26T07:50:52.123Z,1008.27
2019-05-26T07:51:52.912Z,1008.34
2019-05-26T07:52:52.914Z,1008.33
2019-05-26T07:53:55.837Z,1008.36
2019-05-26T07:54:52.067Z,1008.39
2019-05-26T07:55:52.105Z,1008.36
2019-05-26T07:56:52.045Z,1008.38
2019-05-26T07:57:52.052Z,1008.37
2019-05-26T07:58:52.105Z,1008.39
2019-05-26T07:59:52.027Z,1008.35
2019-05-26T08:00:52.017Z,1008.39
2019-05-26T08:01:52.021Z,1008.40
2019-05-26T08:02:51.992Z,1008.37
2019-05-26T08:03:51.962Z,1008.37
2019-05-26T08:04:51.993Z,1008.38
2019-05-26T08:05:52.012Z,1008.39
2019-05-26T08:06:51.961Z,1008.38
2019-05-26T08:07:51.986Z,1008.38
2019-05-26T08:08:51.989Z,1008.37
2019-05-26T08:09:51.946Z,1008.37
2019-05-26T08:10:55.032Z,1008.38
2019-05-26T08:12:01.011Z,1008.31
2019-05-26T08:12:51.875Z,1008.35
2019-05-26T08:13:51.878Z,1008.35
2019-05-26T08:14:51.861Z,1008.27
2019-05-26T08:15:51.869Z,1008.26
2019-05-26T08:16:51.828Z,1008.33
2019-05-26T08:17:51.829Z,1008.30
2019-05-26T08:18:52.449Z,1008.29
2019-05-26T08:19:51.843Z,1008.31
2019-05-26T08:20:51.853Z,1008.32
2019-05-26T08:21:54.520Z,1008.34
2019-05-26T08:22:51.763Z,1008.24
2019-05-26T08:23:51.975Z,1008.25
2019-05-26T08:24:51.830Z,1008.24
2019-05-26T08:25:51.748Z,1008.13
2019-05-26T08:26:51.809Z,1008.17
2019-05-26T08:27:51.810Z,1008.10
2019-05-26T08:28:51.727Z,1008.10
2019-05-26T08:29:51.708Z,1008.09
2019-05-26T08:30:51.748Z,1008.04
2019-05-26T08:31:52.450Z,1008.04
2019-05-26T08:32:51.793Z,1008.01
2019-05-26T08:33:51.787Z,1008.03
2019-05-26T08:34:51.688Z,1008.04
2019-05-26T08:35:51.710Z,1007.97
2019-05-26T08:36:51.657Z,1007.97
2019-05-26T08:37:51.667Z,1007.95
2019-05-26T08:38:51.634Z,1007.97
2019-05-26T08:39:51.588Z,1007.96
2019-05-26T08:40:51.576Z,1008.01
2019-05-26T08:41:51.586Z,1007.90
2019-05-26T08:42:51.621Z,1007.85
2019-05-26T08:43:51.551Z,1007.92
2019-05-26T08:44:51.815Z,1007.91
2019-05-26T08:45:51.563Z,1007.85
2019-05-26T08:46:51.511Z,1007.84
2019-05-26T08:47:51.525Z,1007.82
2019-05-26T08:48:51.524Z,1007.79
2019-05-26T08:49:51.699Z,1007.86
2019-05-26T08:50:51.598Z,1007.85
2019-05-26T08:51:51.501Z,1007.77
2019-05-26T08:52:51.435Z,1007.79
2019-05-26T08:53:51.506Z,1007.73
2019-05-26T08:54:51.570Z,1007.70
2019-05-26T08:55:51.456Z,1007.72
2019-05-26T08:56:51.517Z,1007.71
2019-05-26T08:57:51.471Z,1007.64
2019-05-26T08:58:51.455Z,1007.64
2019-05-26T08:59:51.464Z,1007.64
2019-05-26T09:00:51.401Z,1007.62
2019-05-26T09:01:51.386Z,1007.60
2019-05-26T09:02:52.058Z,1007.63
2019-05-26T09:03:51.366Z,1007.62
2019-05-26T09:04:51.961Z,1007.58
2019-05-26T09:05:51.308Z,1007.61
2019-05-26T09:06:52.021Z,1007.57
2019-05-26T09:07:51.347Z,1007.54
2019-05-26T09:08:51.271Z,1007.53
2019-05-26T09:09:51.268Z,1007.51
2019-05-26T09:10:51.297Z,1007.45
2019-05-26T09:11:51.406Z,1007.56
2019-05-26T09:13:00.993Z,1007.49
2019-05-26T09:13:52.216Z,1007.54
2019-05-26T09:14:51.226Z,1007.47
2019-05-26T09:15:51.223Z,1007.43
2019-05-26T09:16:51.237Z,1007.43
2019-05-26T09:17:51.196Z,1007.42
2019-05-26T09:18:51.208Z,1007.41
2019-05-26T09:19:51.177Z,1007.41
2019-05-26T09:20:51.338Z,1007.44
2019-05-26T09:21:51.135Z,1007.37
2019-05-26T09:22:51.135Z,1007.39
2019-05-26T09:23:51.105Z,1007.35
2019-05-26T09:24:51.312Z,1007.36
2019-05-26T09:25:51.094Z,1007.34
2019-05-26T09:26:51.099Z,1007.34
2019-05-26T09:27:51.131Z,1007.35
2019-05-26T09:28:51.111Z,1007.29
2019-05-26T09:29:51.221Z,1007.27
2019-05-26T09:30:51.062Z,1007.30
2019-05-26T09:31:55.639Z,1007.25
2019-05-26T09:32:54.633Z,1007.25
2019-05-26T09:33:51.157Z,1007.28
2019-05-26T09:34:51.024Z,1007.18
2019-05-26T09:35:51.004Z,1007.21
2019-05-26T09:36:51.639Z,1007.24
2019-05-26T09:37:51.000Z,1007.20
2019-05-26T09:38:52.593Z,1007.21
2019-05-26T09:39:52.620Z,1007.17
2019-05-26T09:40:51.973Z,1007.16
2019-05-26T09:41:51.449Z,1007.19
2019-05-26T09:42:56.577Z,1007.23
2019-05-26T09:43:50.916Z,1007.18
2019-05-26T09:44:50.912Z,1007.23
2019-05-26T09:45:50.941Z,1007.11
2019-05-26T09:46:50.910Z,1007.16
2019-05-26T09:47:51.563Z,1007.12
2019-05-26T09:48:50.880Z,1007.18
2019-05-26T09:49:50.975Z,1007.09
2019-05-26T09:50:50.986Z,1007.15
2019-05-26T09:51:51.593Z,1007.11
2019-05-26T09:52:51.772Z,1007.15
2019-05-26T09:54:01.371Z,1007.13
2019-05-26T09:54:51.989Z,1007.09
2019-05-26T09:55:51.579Z,1007.12
2019-05-26T09:56:50.769Z,1007.07
2019-05-26T09:57:51.607Z,1007.08
2019-05-26T09:58:50.782Z,1007.06
2019-05-26T09:59:50.924Z,1006.96
2019-05-26T10:00:51.493Z,1006.98
2019-05-26T10:01:50.908Z,1006.95
2019-05-26T10:02:50.776Z,1006.92
2019-05-26T10:04:23.078Z,1006.96
2019-05-26T10:04:52.545Z,1006.95
2019-05-26T10:05:52.571Z,1006.97
2019-05-26T10:06:50.689Z,1006.91
2019-05-26T10:07:50.927Z,1006.92
2019-05-26T10:08:50.718Z,1006.88
2019-05-26T10:09:50.793Z,1006.88
2019-05-26T10:10:50.696Z,1006.92
2019-05-26T10:11:51.619Z,1006.90
2019-05-26T10:12:50.979Z,1006.90
2019-05-26T10:14:07.998Z,1006.88
2019-05-26T10:14:53.864Z,1006.82
2019-05-26T10:15:50.639Z,1006.83
2019-05-26T10:16:52.594Z,1006.79
2019-05-26T10:17:52.238Z,1006.89
2019-05-26T10:18:53.448Z,1006.87
2019-05-26T10:19:50.553Z,1006.86
2019-05-26T10:20:51.075Z,1006.84
2019-05-26T10:21:50.555Z,1006.81
2019-05-26T10:22:51.649Z,1006.80
2019-05-26T10:23:53.002Z,1006.78
2019-05-26T10:24:51.085Z,1006.81
2019-05-26T10:25:52.488Z,1006.81
2019-05-26T10:26:50.699Z,1006.83
2019-05-26T10:27:51.002Z,1006.83
2019-05-26T10:28:50.611Z,1006.83
2019-05-26T10:29:51.123Z,1006.82
2019-05-26T10:30:50.586Z,1006.91
2019-05-26T10:31:55.388Z,1006.89
2019-05-26T10:32:50.465Z,1006.77
2019-05-26T10:33:50.403Z,1006.74
2019-05-26T10:34:51.122Z,1006.72
2019-05-26T10:35:58.451Z,1006.74
2019-05-26T10:36:50.497Z,1006.63
2019-05-26T10:37:51.244Z,1006.74
2019-05-26T10:38:50.368Z,1006.71
2019-05-26T10:39:51.400Z,1006.68
2019-05-26T10:40:51.493Z,1006.69
2019-05-26T10:41:51.658Z,1006.67
2019-05-26T10:42:51.541Z,1006.77
2019-05-26T10:43:50.283Z,1006.70
2019-05-26T10:44:53.534Z,1006.72
2019-05-26T10:45:50.335Z,1006.67
2019-05-26T10:46:50.408Z,1006.71
2019-05-26T10:47:50.659Z,1006.63
2019-05-26T10:48:52.901Z,1006.62
2019-05-26T10:49:50.231Z,1006.64
2019-05-26T10:50:50.213Z,1006.62
2019-05-26T10:51:51.105Z,1006.56
2019-05-26T10:52:50.162Z,1006.53
2019-05-26T10:53:50.165Z,1006.53
2019-05-26T10:54:57.111Z,1006.56
2019-05-26T10:55:50.236Z,1006.42
2019-05-26T10:56:50.217Z,1006.46
2019-05-26T10:57:51.135Z,1006.49
2019-05-26T10:58:50.136Z,1006.46
2019-05-26T10:59:50.173Z,1006.35
2019-05-26T11:00:50.097Z,1006.46
2019-05-26T11:01:51.000Z,1006.37
2019-05-26T11:02:50.076Z,1006.45
2019-05-26T11:03:50.096Z,1006.41
2019-05-26T11:04:50.101Z,1006.41
2019-05-26T11:05:50.124Z,1006.38
2019-05-26T11:06:50.026Z,1006.35
2019-05-26T11:07:50.021Z,1006.32
2019-05-26T11:08:50.078Z,1006.33
2019-05-26T11:09:50.150Z,1006.38
2019-05-26T11:10:50.077Z,1006.39
2019-05-26T11:11:50.745Z,1006.30
2019-05-26T11:12:50.072Z,1006.36
2019-05-26T11:14:02.313Z,1006.30
2019-05-26T11:14:50.946Z,1006.38
2019-05-26T11:15:50.622Z,1006.30
2019-05-26T11:16:49.963Z,1006.26
2019-05-26T11:17:50.505Z,1006.25
2019-05-26T11:18:57.506Z,1006.22
2019-05-26T11:19:49.920Z,1006.25
2019-05-26T11:20:49.938Z,1006.23
2019-05-26T11:21:49.899Z,1006.25
2019-05-26T11:22:49.917Z,1006.33
2019-05-26T11:23:49.837Z,1006.26
2019-05-26T11:24:49.956Z,1006.27
2019-05-26T11:25:50.541Z,1006.21
2019-05-26T11:26:49.814Z,1006.23
2019-05-26T11:27:51.318Z,1006.26
2019-05-26T11:28:49.783Z,1006.20
2019-05-26T11:29:49.773Z,1006.18
2019-05-26T11:30:49.770Z,1006.18
2019-05-26T11:31:50.561Z,1006.13
2019-05-26T11:34:18.491Z,1006.12
2019-05-26T11:35:20.125Z,1006.07
2019-05-26T11:36:19.120Z,1006.01
2019-05-26T11:37:18.497Z,1006.07
2019-05-26T11:38:18.610Z,1006.06
2019-05-26T11:39:18.437Z,1005.96
2019-05-26T11:40:19.130Z,1006.09
2019-05-26T11:41:18.410Z,1005.99
2019-05-26T11:42:27.254Z,1006.14
2019-05-26T11:43:18.488Z,1006.18
2019-05-26T11:44:18.731Z,1006.15
2019-05-26T11:45:18.363Z,1006.00
2019-05-26T11:46:18.416Z,1006.04
2019-05-26T11:47:18.339Z,1006.15
2019-05-26T11:48:18.349Z,1006.09
2019-05-26T11:49:18.326Z,1006.03
2019-05-26T11:50:18.311Z,1006.12
2019-05-26T11:51:18.324Z,1006.00
2019-05-26T11:52:20.386Z,1006.01
2019-05-26T11:53:18.362Z,1005.97
2019-05-26T11:54:18.293Z,1006.04
2019-05-26T11:55:18.313Z,1006.08
2019-05-26T11:56:18.630Z,1005.96
2019-05-26T11:57:18.268Z,1005.98
2019-05-26T11:58:18.252Z,1005.90
2019-05-26T11:59:18.227Z,1006.05
2019-05-26T12:00:18.226Z,1005.88
2019-05-26T12:01:18.233Z,1005.83
2019-05-26T12:02:18.756Z,1005.85
2019-05-26T12:03:19.263Z,1005.83
2019-05-26T12:04:18.220Z,1005.76
2019-05-26T12:05:18.685Z,1005.83
2019-05-26T12:06:18.156Z,1005.87
2019-05-26T12:07:20.749Z,1005.77
2019-05-26T12:08:18.129Z,1005.81
2019-05-26T12:09:18.169Z,1005.76
2019-05-26T12:10:18.115Z,1005.75
2019-05-26T12:11:18.135Z,1005.77
2019-05-26T12:12:18.113Z,1005.74